sensor_id;sensor_type;location;lat;lon;timestamp;P1;durP1;ratioP1;P2;durP2;ratioP2
67819;SDS011;54618;52.018;5.576;2023-09-08T00:00:56;12.98;;;9.50;;
67819;SDS011;54618;52.018;5.576;2023-09-08T00:03:22;14.90;;;10.77;;
67819;SDS011;54618;52.018;5.576;2023-09-08T00:05:47;15.10;;;9.93;;
67819;SDS011;54618;52.018;5.576;2023-09-08T00:08:13;13.57;;;9.15;;
67819;SDS011;54618;52.018;5.576;2023-09-08T00:10:38;16.05;;;11.07;;
67819;SDS011;54618;52.018;5.576;2023-09-08T00:13:04;17.73;;;10.35;;
67819;SDS011;54618;52.018;5.576;2023-09-08T00:15:30;16.52;;;9.52;;
67819;SDS011;54618;52.018;5.576;2023-09-08T00:17:55;14.82;;;9.80;;
67819;SDS011;54618;52.018;5.576;2023-09-08T00:20:22;14.07;;;9.95;;
67819;SDS011;54618;52.018;5.576;2023-09-08T00:22:47;14.77;;;9.95;;
67819;SDS011;54618;52.018;5.576;2023-09-08T00:25:13;16.95;;;9.82;;
67819;SDS011;54618;52.018;5.576;2023-09-08T00:27:38;15.23;;;9.90;;
67819;SDS011;54618;52.018;5.576;2023-09-08T00:30:04;13.90;;;9.73;;
67819;SDS011;54618;52.018;5.576;2023-09-08T00:32:30;13.30;;;10.10;;
67819;SDS011;54618;52.018;5.576;2023-09-08T00:34:56;14.38;;;9.02;;
67819;SDS011;54618;52.018;5.576;2023-09-08T00:37:21;18.15;;;9.80;;
67819;SDS011;54618;52.018;5.576;2023-09-08T00:39:47;13.50;;;9.80;;
67819;SDS011;54618;52.018;5.576;2023-09-08T00:42:12;13.27;;;9.48;;
67819;SDS011;54618;52.018;5.576;2023-09-08T00:44:38;15.05;;;9.40;;
67819;SDS011;54618;52.018;5.576;2023-09-08T00:47:04;15.00;;;9.75;;
67819;SDS011;54618;52.018;5.576;2023-09-08T00:49:30;13.68;;;9.63;;
67819;SDS011;54618;52.018;5.576;2023-09-08T00:51:55;14.63;;;9.30;;
67819;SDS011;54618;52.018;5.576;2023-09-08T00:54:21;13.25;;;10.00;;
67819;SDS011;54618;52.018;5.576;2023-09-08T00:56:46;14.80;;;10.23;;
67819;SDS011;54618;52.018;5.576;2023-09-08T00:59:14;14.40;;;10.32;;
67819;SDS011;54618;52.018;5.576;2023-09-08T01:01:42;15.93;;;9.95;;
67819;SDS011;54618;52.018;5.576;2023-09-08T01:04:08;14.18;;;9.15;;
67819;SDS011;54618;52.018;5.576;2023-09-08T01:06:34;14.73;;;9.98;;
67819;SDS011;54618;52.018;5.576;2023-09-08T01:08:59;11.50;;;8.68;;
67819;SDS011;54618;52.018;5.576;2023-09-08T01:11:25;15.25;;;9.95;;
67819;SDS011;54618;52.018;5.576;2023-09-08T01:13:51;12.93;;;9.27;;
67819;SDS011;54618;52.018;5.576;2023-09-08T01:16:16;14.45;;;10.07;;
67819;SDS011;54618;52.018;5.576;2023-09-08T01:18:42;14.20;;;10.48;;
67819;SDS011;54618;52.018;5.576;2023-09-08T01:26:36;13.25;;;9.73;;
67819;SDS011;54618;52.018;5.576;2023-09-08T01:29:05;13.20;;;9.30;;
67819;SDS011;54618;52.018;5.576;2023-09-08T01:31:33;13.93;;;10.40;;
67819;SDS011;54618;52.018;5.576;2023-09-08T01:34:00;14.77;;;10.55;;
67819;SDS011;54618;52.018;5.576;2023-09-08T01:36:29;17.95;;;11.10;;
67819;SDS011;54618;52.018;5.576;2023-09-08T01:38:55;16.85;;;10.05;;
67819;SDS011;54618;52.018;5.576;2023-09-08T01:41:20;15.80;;;10.32;;
67819;SDS011;54618;52.018;5.576;2023-09-08T01:43:48;18.33;;;11.07;;
67819;SDS011;54618;52.018;5.576;2023-09-08T01:46:14;16.08;;;10.48;;
67819;SDS011;54618;52.018;5.576;2023-09-08T01:48:39;13.85;;;9.55;;
67819;SDS011;54618;52.018;5.576;2023-09-08T01:51:05;14.65;;;10.52;;
67819;SDS011;54618;52.018;5.576;2023-09-08T01:53:30;15.50;;;11.63;;
67819;SDS011;54618;52.018;5.576;2023-09-08T01:55:56;15.05;;;10.32;;
67819;SDS011;54618;52.018;5.576;2023-09-08T01:58:21;16.35;;;11.35;;
67819;SDS011;54618;52.018;5.576;2023-09-08T02:00:50;15.15;;;10.50;;
67819;SDS011;54618;52.018;5.576;2023-09-08T02:03:18;14.63;;;10.38;;
67819;SDS011;54618;52.018;5.576;2023-09-08T02:05:49;16.27;;;10.75;;
67819;SDS011;54618;52.018;5.576;2023-09-08T02:08:14;16.20;;;10.57;;
67819;SDS011;54618;52.018;5.576;2023-09-08T02:10:43;13.27;;;9.60;;
67819;SDS011;54618;52.018;5.576;2023-09-08T02:13:08;14.68;;;10.07;;
67819;SDS011;54618;52.018;5.576;2023-09-08T02:15:34;13.38;;;9.50;;
67819;SDS011;54618;52.018;5.576;2023-09-08T02:18:01;16.00;;;10.63;;
67819;SDS011;54618;52.018;5.576;2023-09-08T02:20:27;18.27;;;12.38;;
67819;SDS011;54618;52.018;5.576;2023-09-08T02:22:53;18.13;;;10.40;;
67819;SDS011;54618;52.018;5.576;2023-09-08T02:25:19;20.45;;;11.15;;
67819;SDS011;54618;52.018;5.576;2023-09-08T02:27:45;16.23;;;10.55;;
67819;SDS011;54618;52.018;5.576;2023-09-08T02:30:12;13.85;;;9.55;;
67819;SDS011;54618;52.018;5.576;2023-09-08T02:32:37;14.50;;;9.60;;
67819;SDS011;54618;52.018;5.576;2023-09-08T02:35:03;14.13;;;10.05;;
67819;SDS011;54618;52.018;5.576;2023-09-08T02:37:28;16.48;;;10.35;;
67819;SDS011;54618;52.018;5.576;2023-09-08T02:39:54;15.98;;;10.30;;
67819;SDS011;54618;52.018;5.576;2023-09-08T02:42:19;14.02;;;10.35;;
67819;SDS011;54618;52.018;5.576;2023-09-08T02:44:48;16.38;;;10.95;;
67819;SDS011;54618;52.018;5.576;2023-09-08T02:47:13;17.25;;;11.45;;
67819;SDS011;54618;52.018;5.576;2023-09-08T02:49:39;15.85;;;11.43;;
67819;SDS011;54618;52.018;5.576;2023-09-08T02:52:05;14.93;;;10.38;;
67819;SDS011;54618;52.018;5.576;2023-09-08T02:54:30;15.27;;;10.00;;
67819;SDS011;54618;52.018;5.576;2023-09-08T02:56:56;17.00;;;9.70;;
67819;SDS011;54618;52.018;5.576;2023-09-08T02:59:21;18.33;;;10.85;;
67819;SDS011;54618;52.018;5.576;2023-09-08T03:01:47;16.10;;;10.82;;
67819;SDS011;54618;52.018;5.576;2023-09-08T03:04:12;16.38;;;11.68;;
67819;SDS011;54618;52.018;5.576;2023-09-08T03:06:38;17.13;;;11.80;;
67819;SDS011;54618;52.018;5.576;2023-09-08T03:09:03;16.73;;;11.13;;
67819;SDS011;54618;52.018;5.576;2023-09-08T03:11:29;16.73;;;11.30;;
67819;SDS011;54618;52.018;5.576;2023-09-08T03:13:54;16.30;;;11.27;;
67819;SDS011;54618;52.018;5.576;2023-09-08T03:16:20;15.95;;;10.57;;
67819;SDS011;54618;52.018;5.576;2023-09-08T03:18:48;14.65;;;10.02;;
67819;SDS011;54618;52.018;5.576;2023-09-08T03:21:13;13.00;;;9.43;;
67819;SDS011;54618;52.018;5.576;2023-09-08T03:23:40;15.23;;;9.60;;
67819;SDS011;54618;52.018;5.576;2023-09-08T03:26:07;14.63;;;9.73;;
67819;SDS011;54618;52.018;5.576;2023-09-08T03:28:33;15.60;;;9.30;;
67819;SDS011;54618;52.018;5.576;2023-09-08T03:31:00;15.05;;;10.00;;
67819;SDS011;54618;52.018;5.576;2023-09-08T03:33:26;15.27;;;10.40;;
67819;SDS011;54618;52.018;5.576;2023-09-08T03:35:52;16.30;;;11.65;;
67819;SDS011;54618;52.018;5.576;2023-09-08T03:38:17;14.95;;;10.40;;
67819;SDS011;54618;52.018;5.576;2023-09-08T03:40:43;14.25;;;10.27;;
67819;SDS011;54618;52.018;5.576;2023-09-08T03:43:08;16.02;;;9.82;;
67819;SDS011;54618;52.018;5.576;2023-09-08T03:45:34;14.55;;;9.55;;
67819;SDS011;54618;52.018;5.576;2023-09-08T03:47:59;17.25;;;11.60;;
67819;SDS011;54618;52.018;5.576;2023-09-08T03:50:25;16.23;;;11.23;;
67819;SDS011;54618;52.018;5.576;2023-09-08T03:52:50;15.38;;;10.90;;
67819;SDS011;54618;52.018;5.576;2023-09-08T03:55:19;14.13;;;10.02;;
67819;SDS011;54618;52.018;5.576;2023-09-08T03:57:45;15.65;;;10.82;;
67819;SDS011;54618;52.018;5.576;2023-09-08T04:00:13;15.52;;;10.50;;
67819;SDS011;54618;52.018;5.576;2023-09-08T04:02:45;17.15;;;11.18;;
67819;SDS011;54618;52.018;5.576;2023-09-08T04:05:14;14.30;;;9.88;;
67819;SDS011;54618;52.018;5.576;2023-09-08T04:07:46;16.50;;;9.98;;
67819;SDS011;54618;52.018;5.576;2023-09-08T04:10:12;17.02;;;9.80;;
67819;SDS011;54618;52.018;5.576;2023-09-08T04:12:39;14.02;;;9.25;;
67819;SDS011;54618;52.018;5.576;2023-09-08T04:15:05;19.40;;;11.07;;
67819;SDS011;54618;52.018;5.576;2023-09-08T04:17:31;13.70;;;9.45;;
67819;SDS011;54618;52.018;5.576;2023-09-08T04:19:56;18.25;;;10.93;;
67819;SDS011;54618;52.018;5.576;2023-09-08T04:22:22;15.80;;;9.88;;
67819;SDS011;54618;52.018;5.576;2023-09-08T04:24:47;17.77;;;11.45;;
67819;SDS011;54618;52.018;5.576;2023-09-08T04:27:13;16.27;;;11.00;;
67819;SDS011;54618;52.018;5.576;2023-09-08T04:29:38;19.00;;;11.50;;
67819;SDS011;54618;52.018;5.576;2023-09-08T04:32:04;20.88;;;13.30;;
67819;SDS011;54618;52.018;5.576;2023-09-08T04:34:35;20.30;;;13.07;;
67819;SDS011;54618;52.018;5.576;2023-09-08T04:37:02;19.67;;;13.48;;
67819;SDS011;54618;52.018;5.576;2023-09-08T04:39:28;21.85;;;13.05;;
67819;SDS011;54618;52.018;5.576;2023-09-08T04:41:53;22.90;;;14.20;;
67819;SDS011;54618;52.018;5.576;2023-09-08T04:44:18;22.05;;;13.18;;
67819;SDS011;54618;52.018;5.576;2023-09-08T04:46:44;21.17;;;13.18;;
67819;SDS011;54618;52.018;5.576;2023-09-08T04:49:11;19.90;;;12.68;;
67819;SDS011;54618;52.018;5.576;2023-09-08T04:51:36;18.85;;;12.55;;
67819;SDS011;54618;52.018;5.576;2023-09-08T04:54:02;18.73;;;12.70;;
67819;SDS011;54618;52.018;5.576;2023-09-08T04:56:27;21.83;;;13.02;;
67819;SDS011;54618;52.018;5.576;2023-09-08T04:58:53;37.33;;;14.45;;
67819;SDS011;54618;52.018;5.576;2023-09-08T05:01:20;26.98;;;12.98;;
67819;SDS011;54618;52.018;5.576;2023-09-08T05:03:45;29.30;;;14.07;;
67819;SDS011;54618;52.018;5.576;2023-09-08T05:06:12;25.13;;;12.02;;
67819;SDS011;54618;52.018;5.576;2023-09-08T05:08:38;25.48;;;12.82;;
67819;SDS011;54618;52.018;5.576;2023-09-08T05:11:04;25.45;;;12.43;;
67819;SDS011;54618;52.018;5.576;2023-09-08T05:13:30;31.80;;;13.18;;
67819;SDS011;54618;52.018;5.576;2023-09-08T05:15:55;29.50;;;12.85;;
67819;SDS011;54618;52.018;5.576;2023-09-08T05:18:36;26.30;;;11.75;;
67819;SDS011;54618;52.018;5.576;2023-09-08T05:21:05;29.20;;;12.95;;
67819;SDS011;54618;52.018;5.576;2023-09-08T05:23:31;20.48;;;11.68;;
67819;SDS011;54618;52.018;5.576;2023-09-08T05:25:57;34.88;;;15.60;;
67819;SDS011;54618;52.018;5.576;2023-09-08T05:28:22;34.25;;;14.18;;
67819;SDS011;54618;52.018;5.576;2023-09-08T05:30:50;36.63;;;13.02;;
67819;SDS011;54618;52.018;5.576;2023-09-08T05:33:19;30.20;;;12.45;;
67819;SDS011;54618;52.018;5.576;2023-09-08T05:35:44;35.75;;;13.90;;
67819;SDS011;54618;52.018;5.576;2023-09-08T05:38:14;45.35;;;15.35;;
67819;SDS011;54618;52.018;5.576;2023-09-08T05:40:39;42.55;;;15.68;;
67819;SDS011;54618;52.018;5.576;2023-09-08T05:43:05;49.47;;;15.05;;
67819;SDS011;54618;52.018;5.576;2023-09-08T05:45:33;40.03;;;13.50;;
67819;SDS011;54618;52.018;5.576;2023-09-08T05:47:59;48.63;;;15.50;;
67819;SDS011;54618;52.018;5.576;2023-09-08T05:50:25;42.88;;;13.98;;
67819;SDS011;54618;52.018;5.576;2023-09-08T05:52:51;44.72;;;14.57;;
67819;SDS011;54618;52.018;5.576;2023-09-08T05:55:17;39.25;;;14.38;;
67819;SDS011;54618;52.018;5.576;2023-09-08T05:57:42;43.85;;;13.85;;
67819;SDS011;54618;52.018;5.576;2023-09-08T06:00:08;40.47;;;14.55;;
67819;SDS011;54618;52.018;5.576;2023-09-08T06:02:34;28.40;;;12.80;;
67819;SDS011;54618;52.018;5.576;2023-09-08T06:05:00;39.85;;;13.60;;
67819;SDS011;54618;52.018;5.576;2023-09-08T06:07:25;35.20;;;13.65;;
67819;SDS011;54618;52.018;5.576;2023-09-08T06:09:51;38.50;;;14.38;;
67819;SDS011;54618;52.018;5.576;2023-09-08T06:12:19;32.80;;;14.60;;
67819;SDS011;54618;52.018;5.576;2023-09-08T06:14:45;33.25;;;14.85;;
67819;SDS011;54618;52.018;5.576;2023-09-08T06:17:14;25.67;;;13.77;;
67819;SDS011;54618;52.018;5.576;2023-09-08T06:19:40;29.60;;;13.73;;
67819;SDS011;54618;52.018;5.576;2023-09-08T06:22:05;23.23;;;13.43;;
67819;SDS011;54618;52.018;5.576;2023-09-08T06:24:30;20.50;;;13.18;;
67819;SDS011;54618;52.018;5.576;2023-09-08T06:26:56;24.45;;;14.10;;
67819;SDS011;54618;52.018;5.576;2023-09-08T06:29:21;24.88;;;12.77;;
67819;SDS011;54618;52.018;5.576;2023-09-08T06:31:47;24.55;;;13.45;;
67819;SDS011;54618;52.018;5.576;2023-09-08T06:34:13;27.95;;;13.93;;
67819;SDS011;54618;52.018;5.576;2023-09-08T06:36:38;30.00;;;14.18;;
67819;SDS011;54618;52.018;5.576;2023-09-08T06:39:04;31.05;;;13.63;;
67819;SDS011;54618;52.018;5.576;2023-09-08T06:41:29;20.90;;;12.50;;
67819;SDS011;54618;52.018;5.576;2023-09-08T06:43:55;23.52;;;12.80;;
67819;SDS011;54618;52.018;5.576;2023-09-08T06:46:20;22.88;;;12.75;;
67819;SDS011;54618;52.018;5.576;2023-09-08T06:48:50;24.85;;;12.30;;
67819;SDS011;54618;52.018;5.576;2023-09-08T06:51:18;21.88;;;13.35;;
67819;SDS011;54618;52.018;5.576;2023-09-08T06:53:44;26.27;;;12.98;;
67819;SDS011;54618;52.018;5.576;2023-09-08T06:56:18;27.33;;;12.63;;
67819;SDS011;54618;52.018;5.576;2023-09-08T06:58:43;20.33;;;13.73;;
67819;SDS011;54618;52.018;5.576;2023-09-08T07:01:09;21.42;;;14.32;;
67819;SDS011;54618;52.018;5.576;2023-09-08T07:03:34;22.83;;;13.32;;
67819;SDS011;54618;52.018;5.576;2023-09-08T07:06:01;23.45;;;13.57;;
67819;SDS011;54618;52.018;5.576;2023-09-08T07:08:28;20.73;;;12.65;;
67819;SDS011;54618;52.018;5.576;2023-09-08T07:10:53;18.73;;;12.57;;
67819;SDS011;54618;52.018;5.576;2023-09-08T07:13:19;19.65;;;13.38;;
67819;SDS011;54618;52.018;5.576;2023-09-08T07:15:44;19.65;;;13.05;;
67819;SDS011;54618;52.018;5.576;2023-09-08T07:18:10;21.77;;;13.52;;
67819;SDS011;54618;52.018;5.576;2023-09-08T07:20:35;20.73;;;12.93;;
67819;SDS011;54618;52.018;5.576;2023-09-08T07:23:01;25.50;;;14.63;;
67819;SDS011;54618;52.018;5.576;2023-09-08T07:25:26;24.95;;;14.48;;
67819;SDS011;54618;52.018;5.576;2023-09-08T07:27:52;18.90;;;13.13;;
67819;SDS011;54618;52.018;5.576;2023-09-08T07:30:18;18.13;;;12.52;;
67819;SDS011;54618;52.018;5.576;2023-09-08T07:32:45;20.05;;;12.73;;
67819;SDS011;54618;52.018;5.576;2023-09-08T07:35:10;18.67;;;13.02;;
67819;SDS011;54618;52.018;5.576;2023-09-08T07:37:41;20.02;;;12.95;;
67819;SDS011;54618;52.018;5.576;2023-09-08T07:40:08;19.55;;;12.00;;
67819;SDS011;54618;52.018;5.576;2023-09-08T07:42:34;22.23;;;11.77;;
67819;SDS011;54618;52.018;5.576;2023-09-08T07:45:00;19.30;;;11.48;;
67819;SDS011;54618;52.018;5.576;2023-09-08T07:47:26;16.70;;;11.95;;
67819;SDS011;54618;52.018;5.576;2023-09-08T07:49:51;15.73;;;11.73;;
67819;SDS011;54618;52.018;5.576;2023-09-08T07:52:17;16.58;;;10.15;;
67819;SDS011;54618;52.018;5.576;2023-09-08T07:54:43;14.68;;;10.30;;
67819;SDS011;54618;52.018;5.576;2023-09-08T07:57:08;17.67;;;11.93;;
67819;SDS011;54618;52.018;5.576;2023-09-08T07:59:34;16.92;;;10.50;;
67819;SDS011;54618;52.018;5.576;2023-09-08T08:02:00;19.05;;;12.00;;
67819;SDS011;54618;52.018;5.576;2023-09-08T08:04:26;16.40;;;11.10;;
67819;SDS011;54618;52.018;5.576;2023-09-08T08:06:52;15.02;;;11.10;;
67819;SDS011;54618;52.018;5.576;2023-09-08T08:09:17;15.82;;;10.90;;
67819;SDS011;54618;52.018;5.576;2023-09-08T08:11:43;14.40;;;10.55;;
67819;SDS011;54618;52.018;5.576;2023-09-08T08:14:08;19.45;;;12.10;;
67819;SDS011;54618;52.018;5.576;2023-09-08T08:16:34;18.02;;;10.82;;
67819;SDS011;54618;52.018;5.576;2023-09-08T08:19:00;15.18;;;10.18;;
67819;SDS011;54618;52.018;5.576;2023-09-08T08:21:26;17.38;;;11.18;;
67819;SDS011;54618;52.018;5.576;2023-09-08T08:23:51;15.40;;;9.80;;
67819;SDS011;54618;52.018;5.576;2023-09-08T08:26:17;12.82;;;9.77;;
67819;SDS011;54618;52.018;5.576;2023-09-08T08:28:43;16.67;;;10.00;;
67819;SDS011;54618;52.018;5.576;2023-09-08T08:31:10;13.48;;;9.75;;
67819;SDS011;54618;52.018;5.576;2023-09-08T08:33:35;15.40;;;10.43;;
67819;SDS011;54618;52.018;5.576;2023-09-08T08:36:01;16.55;;;10.30;;
67819;SDS011;54618;52.018;5.576;2023-09-08T08:38:26;13.98;;;10.43;;
67819;SDS011;54618;52.018;5.576;2023-09-08T08:40:52;13.15;;;9.10;;
67819;SDS011;54618;52.018;5.576;2023-09-08T08:43:17;13.50;;;9.40;;
67819;SDS011;54618;52.018;5.576;2023-09-08T08:45:44;14.93;;;9.48;;
67819;SDS011;54618;52.018;5.576;2023-09-08T08:48:15;13.35;;;9.80;;
67819;SDS011;54618;52.018;5.576;2023-09-08T08:50:49;13.52;;;9.75;;
67819;SDS011;54618;52.018;5.576;2023-09-08T08:53:19;14.18;;;9.93;;
67819;SDS011;54618;52.018;5.576;2023-09-08T08:55:49;14.93;;;8.93;;
67819;SDS011;54618;52.018;5.576;2023-09-08T08:58:17;15.38;;;9.57;;
67819;SDS011;54618;52.018;5.576;2023-09-08T09:00:49;13.65;;;9.57;;
67819;SDS011;54618;52.018;5.576;2023-09-08T09:03:19;14.70;;;8.85;;
67819;SDS011;54618;52.018;5.576;2023-09-08T09:05:46;14.90;;;9.27;;
67819;SDS011;54618;52.018;5.576;2023-09-08T09:08:13;16.35;;;10.20;;
67819;SDS011;54618;52.018;5.576;2023-09-08T09:10:39;13.25;;;9.95;;
67819;SDS011;54618;52.018;5.576;2023-09-08T09:13:05;16.33;;;9.85;;
67819;SDS011;54618;52.018;5.576;2023-09-08T09:15:30;15.57;;;9.88;;
67819;SDS011;54618;52.018;5.576;2023-09-08T09:18:01;15.45;;;9.60;;
67819;SDS011;54618;52.018;5.576;2023-09-08T09:20:31;14.35;;;9.15;;
67819;SDS011;54618;52.018;5.576;2023-09-08T09:22:57;13.05;;;9.38;;
67819;SDS011;54618;52.018;5.576;2023-09-08T09:25:23;13.13;;;9.35;;
67819;SDS011;54618;52.018;5.576;2023-09-08T09:27:56;10.90;;;8.60;;
67819;SDS011;54618;52.018;5.576;2023-09-08T09:30:24;11.40;;;8.63;;
67819;SDS011;54618;52.018;5.576;2023-09-08T09:35:39;11.73;;;8.82;;
67819;SDS011;54618;52.018;5.576;2023-09-08T09:38:25;12.35;;;8.65;;
67819;SDS011;54618;52.018;5.576;2023-09-08T09:40:52;12.75;;;8.48;;
67819;SDS011;54618;52.018;5.576;2023-09-08T09:43:20;14.65;;;8.70;;
67819;SDS011;54618;52.018;5.576;2023-09-08T09:45:50;11.90;;;7.90;;
67819;SDS011;54618;52.018;5.576;2023-09-08T09:48:19;10.93;;;8.07;;
67819;SDS011;54618;52.018;5.576;2023-09-08T09:53:15;10.73;;;8.02;;
67819;SDS011;54618;52.018;5.576;2023-09-08T09:55:45;10.15;;;7.68;;
67819;SDS011;54618;52.018;5.576;2023-09-08T09:58:12;12.40;;;8.50;;
67819;SDS011;54618;52.018;5.576;2023-09-08T10:00:39;14.40;;;8.60;;
67819;SDS011;54618;52.018;5.576;2023-09-08T10:03:13;11.38;;;8.18;;
67819;SDS011;54618;52.018;5.576;2023-09-08T10:05:39;11.02;;;8.38;;
67819;SDS011;54618;52.018;5.576;2023-09-08T10:08:04;14.05;;;8.25;;
67819;SDS011;54618;52.018;5.576;2023-09-08T10:10:31;9.75;;;7.63;;
67819;SDS011;54618;52.018;5.576;2023-09-08T10:13:01;14.20;;;8.20;;
67819;SDS011;54618;52.018;5.576;2023-09-08T10:15:30;15.30;;;8.50;;
67819;SDS011;54618;52.018;5.576;2023-09-08T10:17:56;12.68;;;7.68;;
67819;SDS011;54618;52.018;5.576;2023-09-08T10:20:23;10.27;;;6.88;;
67819;SDS011;54618;52.018;5.576;2023-09-08T10:23:04;11.30;;;7.25;;
67819;SDS011;54618;52.018;5.576;2023-09-08T10:25:34;11.82;;;8.05;;
67819;SDS011;54618;52.018;5.576;2023-09-08T10:28:04;10.00;;;6.80;;
67819;SDS011;54618;52.018;5.576;2023-09-08T10:30:32;8.32;;;6.22;;
67819;SDS011;54618;52.018;5.576;2023-09-08T10:32:59;8.30;;;6.30;;
67819;SDS011;54618;52.018;5.576;2023-09-08T10:35:25;10.93;;;6.35;;
67819;SDS011;54618;52.018;5.576;2023-09-08T10:37:51;18.73;;;7.22;;
67819;SDS011;54618;52.018;5.576;2023-09-08T10:40:36;17.63;;;7.30;;
67819;SDS011;54618;52.018;5.576;2023-09-08T10:43:06;12.48;;;7.15;;
67819;SDS011;54618;52.018;5.576;2023-09-08T10:45:32;9.07;;;6.40;;
67819;SDS011;54618;52.018;5.576;2023-09-08T10:47:58;9.38;;;6.95;;
67819;SDS011;54618;52.018;5.576;2023-09-08T10:50:26;12.48;;;7.75;;
67819;SDS011;54618;52.018;5.576;2023-09-08T10:53:07;15.07;;;8.25;;
67819;SDS011;54618;52.018;5.576;2023-09-08T10:55:36;15.68;;;7.90;;
67819;SDS011;54618;52.018;5.576;2023-09-08T10:58:04;16.45;;;7.13;;
67819;SDS011;54618;52.018;5.576;2023-09-08T11:00:42;10.27;;;7.45;;
67819;SDS011;54618;52.018;5.576;2023-09-08T11:03:26;10.98;;;7.28;;
67819;SDS011;54618;52.018;5.576;2023-09-08T11:05:52;10.45;;;7.43;;
67819;SDS011;54618;52.018;5.576;2023-09-08T11:08:18;12.88;;;7.30;;
67819;SDS011;54618;52.018;5.576;2023-09-08T11:10:44;9.60;;;7.45;;
67819;SDS011;54618;52.018;5.576;2023-09-08T11:13:13;8.57;;;6.93;;
67819;SDS011;54618;52.018;5.576;2023-09-08T11:15:39;10.15;;;7.28;;
67819;SDS011;54618;52.018;5.576;2023-09-08T11:18:05;10.93;;;7.20;;
67819;SDS011;54618;52.018;5.576;2023-09-08T11:20:31;8.45;;;6.22;;
67819;SDS011;54618;52.018;5.576;2023-09-08T11:22:57;11.25;;;6.57;;
67819;SDS011;54618;52.018;5.576;2023-09-08T11:25:22;10.00;;;6.63;;
67819;SDS011;54618;52.018;5.576;2023-09-08T11:27:48;10.43;;;6.13;;
67819;SDS011;54618;52.018;5.576;2023-09-08T11:30:15;12.35;;;6.55;;
67819;SDS011;54618;52.018;5.576;2023-09-08T11:32:43;13.60;;;6.53;;
67819;SDS011;54618;52.018;5.576;2023-09-08T11:35:09;9.45;;;6.10;;
67819;SDS011;54618;52.018;5.576;2023-09-08T11:37:39;10.57;;;5.80;;
67819;SDS011;54618;52.018;5.576;2023-09-08T11:40:06;8.13;;;5.68;;
67819;SDS011;54618;52.018;5.576;2023-09-08T11:42:38;8.25;;;5.57;;
67819;SDS011;54618;52.018;5.576;2023-09-08T11:47:38;10.50;;;6.00;;
67819;SDS011;54618;52.018;5.576;2023-09-08T11:50:09;10.70;;;5.57;;
67819;SDS011;54618;52.018;5.576;2023-09-08T11:52:36;7.63;;;5.20;;
67819;SDS011;54618;52.018;5.576;2023-09-08T11:55:03;9.07;;;5.20;;
67819;SDS011;54618;52.018;5.576;2023-09-08T11:57:30;7.63;;;4.93;;
67819;SDS011;54618;52.018;5.576;2023-09-08T11:59:56;7.30;;;5.20;;
67819;SDS011;54618;52.018;5.576;2023-09-08T12:02:23;11.05;;;5.60;;
67819;SDS011;54618;52.018;5.576;2023-09-08T12:04:49;8.35;;;5.22;;
67819;SDS011;54618;52.018;5.576;2023-09-08T12:07:20;9.20;;;5.20;;
67819;SDS011;54618;52.018;5.576;2023-09-08T12:09:47;9.18;;;5.50;;
67819;SDS011;54618;52.018;5.576;2023-09-08T12:12:13;10.82;;;6.10;;
67819;SDS011;54618;52.018;5.576;2023-09-08T12:14:42;10.65;;;5.28;;
67819;SDS011;54618;52.018;5.576;2023-09-08T12:17:08;7.30;;;5.30;;
67819;SDS011;54618;52.018;5.576;2023-09-08T12:19:33;9.23;;;4.85;;
67819;SDS011;54618;52.018;5.576;2023-09-08T12:22:02;8.52;;;5.25;;
67819;SDS011;54618;52.018;5.576;2023-09-08T12:27:20;8.98;;;6.05;;
67819;SDS011;54618;52.018;5.576;2023-09-08T12:29:53;7.80;;;6.20;;
67819;SDS011;54618;52.018;5.576;2023-09-08T12:32:26;10.02;;;5.70;;
67819;SDS011;54618;52.018;5.576;2023-09-08T12:34:53;13.73;;;5.82;;
67819;SDS011;54618;52.018;5.576;2023-09-08T12:37:20;10.50;;;5.20;;
67819;SDS011;54618;52.018;5.576;2023-09-08T12:39:50;11.85;;;6.20;;
67819;SDS011;54618;52.018;5.576;2023-09-08T12:42:16;12.13;;;6.00;;
67819;SDS011;54618;52.018;5.576;2023-09-08T12:44:45;11.43;;;5.53;;
67819;SDS011;54618;52.018;5.576;2023-09-08T12:47:15;9.68;;;6.05;;
67819;SDS011;54618;52.018;5.576;2023-09-08T12:49:41;8.50;;;6.15;;
67819;SDS011;54618;52.018;5.576;2023-09-08T12:52:06;7.55;;;5.70;;
67819;SDS011;54618;52.018;5.576;2023-09-08T12:54:32;9.15;;;6.30;;
67819;SDS011;54618;52.018;5.576;2023-09-08T12:56:57;9.75;;;6.22;;
67819;SDS011;54618;52.018;5.576;2023-09-08T12:59:23;9.10;;;6.13;;
67819;SDS011;54618;52.018;5.576;2023-09-08T13:01:48;14.00;;;6.03;;
67819;SDS011;54618;52.018;5.576;2023-09-08T13:04:14;6.57;;;5.85;;
67819;SDS011;54618;52.018;5.576;2023-09-08T13:06:39;7.90;;;6.30;;
67819;SDS011;54618;52.018;5.576;2023-09-08T13:09:05;16.05;;;6.63;;
67819;SDS011;54618;52.018;5.576;2023-09-08T13:11:32;11.63;;;5.57;;
67819;SDS011;54618;52.018;5.576;2023-09-08T13:13:57;10.45;;;5.50;;
67819;SDS011;54618;52.018;5.576;2023-09-08T13:16:23;8.18;;;5.18;;
67819;SDS011;54618;52.018;5.576;2023-09-08T13:18:48;16.73;;;5.60;;
67819;SDS011;54618;52.018;5.576;2023-09-08T13:21:14;12.35;;;5.22;;
67819;SDS011;54618;52.018;5.576;2023-09-08T13:23:40;17.73;;;5.45;;
67819;SDS011;54618;52.018;5.576;2023-09-08T13:26:05;8.02;;;4.75;;
67819;SDS011;54618;52.018;5.576;2023-09-08T13:28:31;8.07;;;5.30;;
67819;SDS011;54618;52.018;5.576;2023-09-08T13:30:57;7.22;;;5.50;;
67819;SDS011;54618;52.018;5.576;2023-09-08T13:33:22;7.38;;;4.50;;
67819;SDS011;54618;52.018;5.576;2023-09-08T13:35:48;8.10;;;4.80;;
67819;SDS011;54618;52.018;5.576;2023-09-08T13:38:13;6.95;;;4.78;;
67819;SDS011;54618;52.018;5.576;2023-09-08T13:40:39;6.47;;;4.40;;
67819;SDS011;54618;52.018;5.576;2023-09-08T13:43:06;7.75;;;4.43;;
67819;SDS011;54618;52.018;5.576;2023-09-08T13:45:32;6.85;;;4.80;;
67819;SDS011;54618;52.018;5.576;2023-09-08T13:47:57;9.13;;;5.10;;
67819;SDS011;54618;52.018;5.576;2023-09-08T13:50:23;13.90;;;5.18;;
67819;SDS011;54618;52.018;5.576;2023-09-08T13:52:48;9.35;;;5.05;;
67819;SDS011;54618;52.018;5.576;2023-09-08T13:55:14;13.88;;;5.10;;
67819;SDS011;54618;52.018;5.576;2023-09-08T13:57:40;13.43;;;4.90;;
67819;SDS011;54618;52.018;5.576;2023-09-08T14:00:05;10.20;;;4.65;;
67819;SDS011;54618;52.018;5.576;2023-09-08T14:02:33;13.48;;;5.13;;
67819;SDS011;54618;52.018;5.576;2023-09-08T14:04:59;11.20;;;4.95;;
67819;SDS011;54618;52.018;5.576;2023-09-08T14:07:24;9.50;;;4.95;;
67819;SDS011;54618;52.018;5.576;2023-09-08T14:09:50;13.75;;;5.10;;
67819;SDS011;54618;52.018;5.576;2023-09-08T14:12:15;11.20;;;5.05;;
67819;SDS011;54618;52.018;5.576;2023-09-08T14:14:44;9.93;;;4.88;;
67819;SDS011;54618;52.018;5.576;2023-09-08T14:17:10;9.80;;;5.40;;
67819;SDS011;54618;52.018;5.576;2023-09-08T14:19:35;12.43;;;5.05;;
67819;SDS011;54618;52.018;5.576;2023-09-08T14:22:01;9.60;;;4.55;;
67819;SDS011;54618;52.018;5.576;2023-09-08T14:24:26;8.07;;;5.05;;
67819;SDS011;54618;52.018;5.576;2023-09-08T14:26:52;11.85;;;5.55;;
67819;SDS011;54618;52.018;5.576;2023-09-08T14:29:21;11.65;;;5.00;;
67819;SDS011;54618;52.018;5.576;2023-09-08T14:31:48;9.63;;;5.45;;
67819;SDS011;54618;52.018;5.576;2023-09-08T14:34:13;13.57;;;5.30;;
67819;SDS011;54618;52.018;5.576;2023-09-08T14:36:39;9.82;;;5.10;;
67819;SDS011;54618;52.018;5.576;2023-09-08T14:39:05;12.07;;;5.38;;
67819;SDS011;54618;52.018;5.576;2023-09-08T14:41:31;8.52;;;4.43;;
67819;SDS011;54618;52.018;5.576;2023-09-08T14:43:56;8.45;;;4.63;;